• Join FlightAware (Why Join?)
  • Login
  • US Flag 
07:43PM EDT


 

Airport Tracker/Info


-or-


 

Live Flight TrackerFlight Track Log ✈ EGF3046 ✈ 19-Jun-2013 ✈ KORD - KSYR

Flight Track Log - Related Links

Times and Time Zones

All times are in EDT time to prevent confusion due to time zone crossing. See the EGF3046 flight status page for this flight to view local times or setup timezone preferences in your user account.

Time Position Orientation Groundspeed Altitude Reporting Facility
EDT Latitude Longitude Course Direction KTS MPH feet Rate Location/Type
03:45PM 42.0000 -87.8833 66° East 157 181 1,600  Level Chicago TRACON
03:46PM 42.0333 -87.8167 56° Northeast 215 247 3,300 1,800 Climbing Chicago TRACON
03:47PM 42.1031 -87.5223 59° Northeast  Level FlightAware Approximate
03:47PM 42.0500 -87.7333 75° East 271 312 5,300  Level Chicago TRACON
03:48PM 42.1565 -87.3972 66° East  Level FlightAware Approximate
03:48PM 42.0833 -87.6333 66° East 284 327 7,800  Level Chicago TRACON
03:49PM 42.2005 -87.2654 66° East  Level FlightAware Approximate
03:49PM 42.1167 -87.5333 66° East 293 337 10,000  Level Chicago TRACON
03:50PM 42.2444 -87.1335 66° East  Level FlightAware Approximate
03:50PM 42.1628 -87.3961 66° East 308 354 12,300  Level Chicago Center
03:51PM 42.2006 -87.2872 65° Northeast 321 369 14,300 1,320 Climbing Chicago Center
03:52PM 42.2400 -87.1747 65° Northeast 329 379 15,100 720 Climbing Chicago Center
03:53PM 42.2794 -87.0503 67° East 356 410 15,800 600 Climbing Chicago Center
03:54PM 42.2853 -86.9003 87° East 389 448 16,400 780 Climbing Chicago Center
03:55PM 42.2917 -86.7147 87° East 410 472 17,500 720 Climbing Chicago Center
03:56PM 42.2983 -86.5800 86° East 420 483 18,000 720 Climbing Chicago Center
03:57PM 42.3044 -86.4008 87° East 421 484 19,000 900 Climbing Chicago Center
03:58PM 42.3103 -86.2400 87° East 429 494 19,900 900 Climbing Chicago Center
03:59PM 42.3161 -86.0792 87° East 432 497 20,900 1,080 Climbing Chicago Center
04:00PM 42.3128 -85.8867 91° East 431 496 22,200 1,200 Climbing Chicago Center
04:02PM 42.3103 -85.7244 91° East 434 499 23,400 1,200 Climbing Chicago Center
04:03PM 42.3089 -85.5636 91° East 432 497 24,800 1,380 Climbing Chicago Center
04:04PM 42.3061 -85.4047 91° East 429 494 26,300 1,380 Climbing Chicago Center
04:05PM 42.3042 -85.2503 91° East 418 481 27,700 1,500 Climbing Chicago Center
04:06PM 42.3006 -85.0692 91° East 406 467 29,400 1,500 Climbing Chicago Center
04:07PM 42.2981 -84.9192 91° East 402 463 30,900 1,260 Climbing Chicago Center
04:08PM 42.2936 -84.7700 92° East 402 463 32,100 960 Climbing Chicago Center
04:09PM 42.2900 -84.6167 92° East 408 470 33,000 420 Climbing Chicago Center
04:10PM 42.2881 -84.4522 91° East 435 501 33,000  Level Chicago Center
04:10PM 42.3081 -84.3092 79° East 426 490 33,000  Level Cleveland Center
04:11PM 42.3325 -84.1336 79° East 452 520 33,000  Level Cleveland Center
04:12PM 42.3567 -83.9553 80° East 473 544 33,000  Level Cleveland Center
04:13PM 42.3733 -83.8100 81° East 478 550 33,000  Level Cleveland Center
04:14PM 42.3972 -83.6169 80° East 483 556 33,000 300 Level Cleveland Center
04:15PM 42.4125 -83.4236 84° East 477 549 33,600 480 Climbing Cleveland Center
04:16PM 42.4292 -83.2500 83° East 472 543 34,000 180 Climbing Cleveland Center
04:17PM 42.4475 -83.0903 81° East 472 543 34,000 300 Level Cleveland Center
04:18PM 42.4658 -82.9167 82° East 472 543 34,700 780 Climbing Cleveland Center
04:19PM 42.4817 -82.7425 83° East 466 536 35,600 840 Climbing Cleveland Center
04:20PM 42.4992 -82.5742 82° East 461 531 36,400 660 Climbing Cleveland Center
04:21PM 42.5125 -82.4056 84° East 456 525 37,000 300 Climbing Cleveland Center
04:22PM 42.5297 -82.2314 82° East 456 525 37,000  Level Cleveland Center
04:23PM 42.5444 -82.0542 84° East 466 536 37,000  Level Cleveland Center
04:24PM 42.5614 -81.8769 83° East 471 542 37,000  Level Cleveland Center
04:25PM 42.5800 -81.6856 82° East 465 535 37,000  Level Cleveland Center
04:26PM 42.5961 -81.5111 83° East 465 535 37,000  Level Cleveland Center
04:27PM 42.6119 -81.3281 83° East 471 542 37,000  Level Cleveland Center
04:28PM 42.6275 -81.1503 83° East 471 542 37,000  Level Cleveland Center
04:29PM 42.6408 -80.9700 84° East 476 548 37,000  Level Cleveland Center
04:30PM 42.6539 -80.8033 84° East 481 554 37,000  Level Cleveland Center
04:31PM 42.6686 -80.6228 84° East 489 563 37,000  Level Cleveland Center
04:32PM 42.6811 -80.4392 85° East 489 563 37,000 -180 Level Cleveland Center
04:33PM 42.6972 -80.2556 83° East 489 563 36,700 -720 Descending Cleveland Center
04:34PM 42.7092 -80.0661 85° East 489 563 35,600 -1,140 Descending Cleveland Center
04:35PM 42.7269 -79.8653 83° East 489 563 34,500 -1,080 Descending Cleveland Center
04:36PM 42.7381 -79.6900 85° East 478 550 33,500 -960 Descending Cleveland Center
04:37PM 42.7533 -79.5144 83° East 473 544 32,600 -900 Descending Cleveland Center
04:38PM 42.7661 -79.3361 84° East 473 544 31,700 -840 Descending Cleveland Center
04:39PM 42.7744 -79.1606 86° East 467 537 31,000 -360 Descending Cleveland Center
04:40PM 42.7889 -78.9819 84° East 462 532 31,000 -240 Level Cleveland Center
04:41PM 42.7967 -78.8006 87° East 462 532 30,600 -780 Descending Cleveland Center
04:42PM 42.8103 -78.6161 84° East 472 543 29,500 -1,080 Descending Cleveland Center
04:43PM 42.8194 -78.4319 86° East 482 555 28,500 -780 Descending Cleveland Center
04:44PM 42.8269 -78.2789 86° East 488 562 28,000 -300 Descending Cleveland Center
04:45PM 42.8394 -78.0772 85° East 488 562 28,000 -360 Level Cleveland Center
04:46PM 42.8497 -77.8900 86° East 488 562 27,300 -1,320 Descending Cleveland Center
04:47PM 42.8600 -77.7083 86° East 483 556 25,400 -1,980 Descending Cleveland Center
04:48PM 42.8661 -77.5322 87° East 478 550 23,400 -1,980 Descending Cleveland Center
04:49PM 42.8758 -77.3617 85° East 467 537 21,500 -1,980 Descending Cleveland Center
04:50PM 42.8836 -77.1914 86° East 456 525 19,500 -1,920 Descending Cleveland Center
04:52PM 42.9281 -76.8956 78° East 416 479 16,100 -1,920 Descending Boston Center
04:53PM 42.9608 -76.7503 73° East 408 470 14,200 -1,980 Descending Boston Center
04:54PM 42.9875 -76.5903 77° East 395 455 12,200 -1,560 Descending Boston Center
04:55PM 43.0047 -76.4608 80° East 336 387 11,100 -1,320 Descending Boston Center
04:56PM 43.0192 -76.3481 80° East 283 326 9,600 -1,680 Descending Boston Center
04:57PM 43.0350 -76.2442 78° East 277 319 7,800 -1,800 Descending Boston Center
04:58PM 43.0489 -76.1453 79° East 269 310 6,000 -1,800 Descending Boston Center